Time;durP1;ratioP1;P1;durP2;ratioP2;P2;SDS_P1;SDS_P2;PMS_P1;PMS_P2;Temp;Humidity;BMP_temperature;BMP_pressure;BME280_temperature;BME280_humidity;BME280_pressure;Samples;Min_cycle;Max_cycle;Signal;HPM_P1;HPM_P2
2023/06/13 00:01:14;;;;;;;5.30;4.70;;;17.70;99.90;;;;;;5007210;28;20205;-43
2023/06/13 00:03:40;;;;;;;5.32;4.82;;;17.60;99.90;;;;;;5024700;28;20195;-42
2023/06/13 00:06:07;;;;;;;5.55;4.68;;;17.50;99.90;;;;;;5030301;28;20225;-42
2023/06/13 00:08:33;;;;;;;6.65;4.72;;;17.40;99.90;;;;;;5008031;28;20214;-41
2023/06/13 00:10:59;;;;;;;6.65;4.72;;;17.30;99.90;;;;;;5019751;28;20187;-43
2023/06/13 00:13:25;;;;;;;5.10;4.60;;;17.20;99.90;;;;;;5008365;28;20183;-43
2023/06/13 00:15:56;;;;;;;11.03;5.10;;;17.10;99.90;;;;;;5011287;28;20181;-42
2023/06/13 00:18:22;;;;;;;5.27;4.47;;;17.00;99.90;;;;;;5016267;28;20186;-38
2023/06/13 00:20:50;;;;;;;5.07;4.60;;;16.90;99.90;;;;;;4997764;28;20194;-43
2023/06/13 00:23:16;;;;;;;5.93;4.00;;;17.00;99.90;;;;;;5006375;28;20174;-42
2023/06/13 00:25:42;;;;;;;5.20;4.70;;;16.90;99.90;;;;;;5032072;28;20182;-40
2023/06/13 00:28:09;;;;;;;5.83;3.90;;;16.90;99.90;;;;;;5012854;28;20211;-43
2023/06/13 00:30:35;;;;;;;5.63;4.80;;;16.90;99.90;;;;;;5024454;28;20182;-42
2023/06/13 00:33:01;;;;;;;3.93;3.63;;;16.80;99.90;;;;;;5003195;28;20189;-40
2023/06/13 00:35:27;;;;;;;4.93;4.43;;;16.90;99.90;;;;;;5008078;28;20179;-42
2023/06/13 00:37:56;;;;;;;6.43;4.60;;;16.80;99.90;;;;;;5003588;28;20207;-43
2023/06/13 00:40:25;;;;;;;4.53;3.83;;;16.80;99.90;;;;;;4996925;28;20214;-43
2023/06/13 00:42:57;;;;;;;6.33;4.13;;;16.90;99.90;;;;;;5011320;28;20188;-41
2023/06/13 00:45:26;;;;;;;4.50;4.10;;;16.90;99.90;;;;;;5024673;28;20179;-43
2023/06/13 00:47:55;;;;;;;4.83;4.17;;;17.00;99.90;;;;;;4998798;28;20294;-40
2023/06/13 00:50:31;;;;;;;5.50;4.30;;;17.10;99.90;;;;;;5023568;28;20175;-43
2023/06/13 00:53:04;;;;;;;4.57;4.00;;;17.20;99.90;;;;;;5012461;28;20202;-43
2023/06/13 00:55:30;;;;;;;5.00;4.50;;;17.20;99.90;;;;;;5003368;28;20199;-39
2023/06/13 00:58:02;;;;;;;5.70;4.17;;;17.30;99.90;;;;;;5004650;28;20202;-41
2023/06/13 01:00:30;;;;;;;7.40;4.00;;;17.30;99.90;;;;;;4999714;28;20229;-42
2023/06/13 01:02:58;;;;;;;6.37;4.17;;;17.30;99.90;;;;;;5022183;28;20270;-43
2023/06/13 01:05:28;;;;;;;4.53;4.13;;;17.30;99.90;;;;;;5027733;28;20270;-33
2023/06/13 01:07:59;;;;;;;5.15;4.40;;;17.40;99.90;;;;;;5006169;28;20257;-42
2023/06/13 01:10:29;;;;;;;5.30;4.57;;;17.40;99.90;;;;;;5025390;28;20179;-42
2023/06/13 01:13:18;;;;;;;5.03;4.13;;;17.40;99.90;;;;;;4994701;28;20209;-38
2023/06/13 01:16:12;;;;;;;4.40;4.00;;;17.30;99.90;;;;;;5007704;28;20174;-39
2023/06/13 01:18:43;;;;;;;8.60;4.50;;;17.20;99.90;;;;;;5011759;28;20251;-40
2023/06/13 01:21:10;;;;;;;4.53;4.13;;;17.00;99.90;;;;;;5003796;28;20233;-37
2023/06/13 01:24:00;;;;;;;5.03;4.50;;;16.90;99.90;;;;;;5016004;28;20257;-39
2023/06/13 01:26:36;;;;;;;5.23;4.13;;;16.80;99.90;;;;;;5004829;28;20199;-40
2023/06/13 01:29:05;;;;;;;5.33;4.33;;;16.70;99.90;;;;;;5011541;28;20202;-36
2023/06/13 01:31:33;;;;;;;6.53;4.70;;;16.60;99.90;;;;;;5001868;28;20175;-38
2023/06/13 01:34:00;;;;;;;7.13;3.97;;;16.50;99.90;;;;;;5010935;28;20269;-37
2023/06/13 01:36:26;;;;;;;6.03;4.33;;;16.60;99.90;;;;;;5006168;28;20199;-39
2023/06/13 01:38:53;;;;;;;6.60;4.73;;;16.60;99.90;;;;;;5021381;28;20175;-41
2023/06/13 01:41:19;;;;;;;5.67;4.33;;;16.50;99.90;;;;;;5028383;28;20201;-42
2023/06/13 01:43:45;;;;;;;5.60;4.67;;;16.30;99.90;;;;;;5025514;28;20183;-41
2023/06/13 01:46:27;;;;;;;6.17;4.93;;;16.10;99.90;;;;;;5017738;28;20215;-39
2023/06/13 01:49:19;;;;;;;5.27;4.20;;;16.00;99.90;;;;;;5001629;28;20199;-40
2023/06/13 01:52:25;;;;;;;4.57;4.17;;;15.90;99.90;;;;;;5022902;28;20261;-39
2023/06/13 01:55:02;;;;;;;4.83;4.33;;;15.80;99.90;;;;;;5025885;28;20178;-38
2023/06/13 01:57:37;;;;;;;6.73;4.40;;;15.80;99.90;;;;;;5012422;28;20290;-40
2023/06/13 02:00:04;;;;;;;4.97;3.87;;;15.80;99.90;;;;;;5011271;28;20316;-38
2023/06/13 02:02:42;;;;;;;5.37;4.20;;;15.90;99.90;;;;;;5017208;28;20194;-39
2023/06/13 02:05:08;;;;;;;5.37;4.07;;;15.90;99.90;;;;;;5002820;28;20361;-37
2023/06/13 02:07:36;;;;;;;4.90;4.40;;;15.80;99.90;;;;;;5001958;28;20306;-40
2023/06/13 02:10:05;;;;;;;5.63;4.50;;;15.80;99.90;;;;;;5001218;28;20211;-39
2023/06/13 02:12:32;;;;;;;6.10;4.27;;;15.90;99.90;;;;;;5024225;28;20186;-40
2023/06/13 02:15:00;;;;;;;5.20;4.50;;;15.80;99.90;;;;;;5011712;28;20188;-36
2023/06/13 02:17:26;;;;;;;5.43;4.80;;;15.70;99.90;;;;;;4996857;28;20203;-38
2023/06/13 02:19:52;;;;;;;4.73;4.27;;;15.50;99.90;;;;;;5003265;28;20183;-40
2023/06/13 02:22:18;;;;;;;6.47;4.40;;;15.40;99.90;;;;;;5001351;28;20182;-40
2023/06/13 02:24:44;;;;;;;6.03;4.63;;;15.30;99.90;;;;;;5014568;28;20182;-36
2023/06/13 02:27:10;;;;;;;5.60;4.53;;;15.20;99.90;;;;;;5010305;28;20202;-37
2023/06/13 02:29:38;;;;;;;5.03;4.50;;;15.10;99.90;;;;;;5036243;28;20178;-34
2023/06/13 02:32:05;;;;;;;6.67;4.47;;;15.00;99.90;;;;;;5024807;28;20178;-38
2023/06/13 02:34:31;;;;;;;7.37;4.20;;;15.00;99.90;;;;;;5010840;28;20174;-36
2023/06/13 02:36:57;;;;;;;5.03;3.83;;;15.00;99.90;;;;;;5003084;28;20209;-38
2023/06/13 02:39:23;;;;;;;4.83;4.23;;;14.90;99.90;;;;;;4998184;28;20269;-38
2023/06/13 02:41:49;;;;;;;6.13;4.27;;;15.00;99.90;;;;;;5012535;28;20191;-37
2023/06/13 02:44:15;;;;;;;6.30;4.57;;;15.00;99.90;;;;;;5008478;28;20214;-39
2023/06/13 02:46:41;;;;;;;4.20;3.77;;;14.90;99.90;;;;;;5011871;28;20248;-36
2023/06/13 02:49:07;;;;;;;6.63;4.30;;;15.00;99.90;;;;;;5009120;28;20209;-40
2023/06/13 02:51:34;;;;;;;5.50;4.50;;;15.00;99.90;;;;;;5006678;28;20187;-41
2023/06/13 02:54:00;;;;;;;5.10;4.03;;;15.00;99.90;;;;;;5005723;28;20270;-37
2023/06/13 02:56:26;;;;;;;7.03;4.20;;;14.90;99.90;;;;;;5002531;28;20266;-35
2023/06/13 02:58:52;;;;;;;4.70;4.20;;;15.00;99.90;;;;;;5003026;28;20182;-34
2023/06/13 03:01:18;;;;;;;6.60;3.80;;;15.00;99.90;;;;;;5027004;28;20194;-42
2023/06/13 03:03:47;;;;;;;4.87;4.27;;;15.00;99.90;;;;;;5025770;28;20203;-42
2023/06/13 03:06:17;;;;;;;4.80;4.30;;;14.90;99.90;;;;;;5013425;28;20237;-42
2023/06/13 03:08:48;;;;;;;6.43;4.30;;;14.90;99.90;;;;;;5004018;28;20206;-41
2023/06/13 03:11:14;;;;;;;5.33;4.13;;;14.90;99.90;;;;;;5004200;28;20182;-42
2023/06/13 03:13:41;;;;;;;4.70;4.30;;;14.80;99.90;;;;;;5015716;28;20171;-42
2023/06/13 03:16:08;;;;;;;6.00;4.33;;;14.80;99.90;;;;;;5009868;28;20198;-32
2023/06/13 03:18:36;;;;;;;5.03;4.23;;;14.70;99.90;;;;;;5010321;28;20285;-42
2023/06/13 03:21:03;;;;;;;5.27;4.23;;;14.60;99.90;;;;;;5030144;28;20182;-42
2023/06/13 03:23:30;;;;;;;7.83;4.37;;;14.60;99.90;;;;;;5002679;28;20190;-42
2023/06/13 03:25:57;;;;;;;4.40;3.97;;;14.60;99.90;;;;;;5036731;28;20206;-40
2023/06/13 03:28:23;;;;;;;4.67;3.90;;;14.70;99.90;;;;;;5005839;28;20225;-40
2023/06/13 03:30:51;;;;;;;4.73;4.10;;;14.80;99.90;;;;;;5028689;28;20309;-39
2023/06/13 03:33:18;;;;;;;5.40;4.60;;;14.80;99.90;;;;;;5008564;28;20232;-42
2023/06/13 03:35:47;;;;;;;5.13;4.63;;;14.80;99.90;;;;;;5011268;28;20186;-42
2023/06/13 03:38:17;;;;;;;6.13;4.17;;;14.70;99.90;;;;;;5024243;28;20246;-42
2023/06/13 03:40:43;;;;;;;4.87;3.93;;;14.60;99.90;;;;;;5018828;28;20217;-42
2023/06/13 03:43:12;;;;;;;5.13;4.47;;;14.50;99.90;;;;;;5022727;28;20219;-42
2023/06/13 03:45:41;;;;;;;5.80;4.57;;;14.40;99.90;;;;;;5008422;28;20221;-42
2023/06/13 03:48:09;;;;;;;5.40;4.47;;;14.30;99.90;;;;;;5029347;28;20213;-42
2023/06/13 03:50:36;;;;;;;5.37;4.73;;;14.20;99.90;;;;;;5026688;28;20190;-42
2023/06/13 03:53:02;;;;;;;6.17;4.33;;;14.20;99.90;;;;;;5012945;28;20194;-42
2023/06/13 03:55:29;;;;;;;6.43;4.60;;;14.20;99.90;;;;;;5027450;28;20174;-40
2023/06/13 03:57:55;;;;;;;5.73;4.40;;;14.10;99.90;;;;;;5005215;28;20203;-42
2023/06/13 04:00:22;;;;;;;4.90;4.13;;;14.10;99.90;;;;;;5018145;28;20187;-42
2023/06/13 04:02:55;;;;;;;6.27;4.30;;;14.10;99.90;;;;;;5000558;28;20186;-39
2023/06/13 04:05:21;;;;;;;5.73;3.87;;;14.10;99.90;;;;;;5023121;28;20186;-38
2023/06/13 04:07:47;;;;;;;5.60;4.10;;;14.10;99.90;;;;;;5021637;28;20216;-39
2023/06/13 04:10:13;;;;;;;5.37;4.43;;;14.10;99.90;;;;;;5009739;28;20171;-40
2023/06/13 04:12:39;;;;;;;5.90;4.20;;;14.20;99.90;;;;;;5000015;28;20192;-36
2023/06/13 04:15:06;;;;;;;5.20;3.90;;;14.20;99.90;;;;;;5013290;28;20186;-34
2023/06/13 04:17:32;;;;;;;4.80;4.27;;;14.30;99.90;;;;;;5011262;28;20230;-36
2023/06/13 04:19:58;;;;;;;5.23;4.07;;;14.40;99.90;;;;;;5029660;28;20175;-33
2023/06/13 04:22:24;;;;;;;4.83;3.70;;;14.40;99.90;;;;;;5019807;28;20182;-38
2023/06/13 04:24:51;;;;;;;4.87;3.60;;;14.50;99.90;;;;;;5015025;28;20178;-36
2023/06/13 04:27:19;;;;;;;4.50;4.07;;;14.60;99.90;;;;;;5021958;28;20205;-33
2023/06/13 04:29:48;;;;;;;5.07;3.87;;;14.60;99.90;;;;;;5003228;28;20178;-33
2023/06/13 04:32:17;;;;;;;5.60;3.80;;;14.70;99.90;;;;;;5012113;28;20190;-34
2023/06/13 04:35:01;;;;;;;6.73;4.27;;;14.90;99.90;;;;;;5018867;28;20177;-33
2023/06/13 04:37:30;;;;;;;4.90;3.50;;;15.00;99.90;;;;;;5005309;28;20210;-35
2023/06/13 04:39:56;;;;;;;4.17;3.77;;;15.10;99.90;;;;;;5029398;28;20634;-35
2023/06/13 04:42:29;;;;;;;4.93;3.67;;;15.20;99.90;;;;;;5005766;28;20170;-34
2023/06/13 04:44:58;;;;;;;4.43;3.60;;;15.30;99.90;;;;;;5029321;28;20183;-36
2023/06/13 04:47:29;;;;;;;4.00;3.30;;;15.40;99.90;;;;;;5025020;28;20285;-37
2023/06/13 04:49:58;;;;;;;5.27;3.70;;;15.50;99.90;;;;;;5021246;28;20168;-33
2023/06/13 04:52:29;;;;;;;5.17;4.37;;;15.60;99.90;;;;;;5016448;28;20182;-37
2023/06/13 04:54:56;;;;;;;9.97;3.83;;;15.60;99.90;;;;;;5005193;28;20191;-34
2023/06/13 04:57:22;;;;;;;5.80;4.07;;;15.60;99.90;;;;;;5026695;28;20234;-35
2023/06/13 04:59:48;;;;;;;4.10;3.70;;;15.70;99.90;;;;;;5030738;28;20206;-33
2023/06/13 05:02:14;;;;;;;7.00;3.67;;;15.70;99.90;;;;;;5023062;28;20213;-33
2023/06/13 05:04:42;;;;;;;4.83;3.87;;;15.70;99.90;;;;;;5025643;28;20186;-32
2023/06/13 05:07:08;;;;;;;8.07;3.80;;;15.70;99.90;;;;;;5028178;28;20242;-35
2023/06/13 05:09:34;;;;;;;5.07;3.83;;;15.70;99.90;;;;;;5016303;28;20210;-32
2023/06/13 05:12:00;;;;;;;6.17;3.43;;;15.80;99.90;;;;;;5011603;28;20187;-34
2023/06/13 05:14:27;;;;;;;8.77;3.90;;;15.90;99.90;;;;;;4999219;28;20191;-35
2023/06/13 05:16:53;;;;;;;4.17;3.13;;;16.00;99.90;;;;;;5019027;28;20190;-34
2023/06/13 05:19:19;;;;;;;6.77;3.60;;;16.10;99.90;;;;;;5030522;28;20182;-33
2023/06/13 05:21:46;;;;;;;4.10;3.57;;;16.20;99.90;;;;;;5030213;28;20185;-35
2023/06/13 05:24:13;;;;;;;4.93;3.80;;;16.30;99.90;;;;;;5003652;28;20183;-34
2023/06/13 05:26:39;;;;;;;4.00;3.60;;;16.40;99.90;;;;;;5014734;28;20218;-34
2023/06/13 05:29:05;;;;;;;5.23;3.97;;;16.60;99.90;;;;;;5027745;28;20217;-33
2023/06/13 05:31:37;;;;;;;3.50;3.17;;;16.80;99.90;;;;;;5010977;28;20254;-35
2023/06/13 05:34:03;;;;;;;6.07;3.73;;;17.00;99.90;;;;;;5025288;28;20186;-33
2023/06/13 05:36:29;;;;;;;10.67;9.57;;;17.10;99.90;;;;;;5007649;28;20202;-33
2023/06/13 05:38:56;;;;;;;7.37;4.30;;;17.30;99.90;;;;;;4997824;28;20174;-33
2023/06/13 05:41:22;;;;;;;6.07;3.63;;;17.50;99.90;;;;;;5032313;28;20190;-34
2023/06/13 05:43:50;;;;;;;4.77;3.50;;;17.60;99.90;;;;;;5032550;28;20225;-35
2023/06/13 05:46:15;;;;;;;6.07;3.05;;;17.60;99.90;;;;;;5043572;28;20212;-34
2023/06/13 05:48:41;;;;;;;4.97;3.63;;;17.80;99.90;;;;;;5009430;28;20256;-35
2023/06/13 05:51:07;;;;;;;4.68;3.72;;;17.90;99.90;;;;;;4996959;28;20224;-34
2023/06/13 05:53:33;;;;;;;3.93;3.10;;;18.00;99.90;;;;;;5017409;28;20184;-37
2023/06/13 05:55:59;;;;;;;3.63;3.20;;;18.10;99.90;;;;;;5024277;28;20199;-41
2023/06/13 05:58:25;;;;;;;4.15;3.00;;;18.30;99.90;;;;;;5013494;28;20228;-32
2023/06/13 06:00:52;;;;;;;3.75;3.15;;;18.40;99.90;;;;;;5013886;28;20178;-33
2023/06/13 06:03:18;;;;;;;4.38;3.38;;;18.50;99.90;;;;;;5010423;28;20191;-34
2023/06/13 06:05:44;;;;;;;6.43;3.30;;;18.70;99.90;;;;;;5025589;28;20666;-32
2023/06/13 06:08:12;;;;;;;5.15;2.80;;;18.90;99.90;;;;;;5011363;28;20224;-33
2023/06/13 06:10:38;;;;;;;5.05;2.85;;;19.10;99.90;;;;;;5012384;28;20180;-35
2023/06/13 06:13:05;;;;;;;5.70;3.10;;;19.20;99.90;;;;;;5013352;28;20207;-36
2023/06/13 06:15:32;;;;;;;5.30;3.15;;;19.30;99.90;;;;;;5028803;28;20175;-32
2023/06/13 06:17:58;;;;;;;5.13;3.05;;;19.50;99.90;;;;;;5009926;28;20195;-33
2023/06/13 06:20:24;;;;;;;3.13;2.80;;;19.60;99.90;;;;;;5010612;28;20180;-34
2023/06/13 06:22:49;;;;;;;6.75;3.13;;;19.70;99.90;;;;;;5010918;28;20209;-35
2023/06/13 06:25:19;;;;;;;4.18;3.05;;;19.90;99.90;;;;;;5029445;28;20186;-34
2023/06/13 06:27:47;;;;;;;5.40;3.00;;;20.00;99.50;;;;;;5024654;28;20206;-32
2023/06/13 06:30:17;;;;;;;7.15;3.10;;;20.10;99.30;;;;;;5029720;28;20253;-35
2023/06/13 06:32:44;;;;;;;3.63;2.90;;;20.10;99.10;;;;;;5003499;28;20182;-37
2023/06/13 06:35:14;;;;;;;5.13;2.53;;;20.20;99.10;;;;;;5026185;28;20175;-32
2023/06/13 06:37:40;;;;;;;5.25;3.05;;;20.40;98.80;;;;;;5021053;28;20198;-36
2023/06/13 06:40:08;;;;;;;4.22;3.20;;;20.50;98.40;;;;;;5006343;28;20186;-36
2023/06/13 06:42:34;;;;;;;6.15;3.10;;;20.70;98.30;;;;;;5002497;28;20207;-36
2023/06/13 06:45:15;;;;;;;4.45;2.95;;;20.90;98.30;;;;;;5030265;28;20178;-34
2023/06/13 06:47:41;;;;;;;4.18;3.15;;;21.10;97.70;;;;;;5006204;28;20215;-37
2023/06/13 06:50:08;;;;;;;3.40;2.97;;;21.10;96.90;;;;;;5024983;28;20182;-36
2023/06/13 06:52:33;;;;;;;5.45;3.13;;;21.10;96.80;;;;;;4997157;28;20179;-38
2023/06/13 06:55:00;;;;;;;6.25;2.90;;;21.20;96.60;;;;;;5012109;28;20182;-38
2023/06/13 06:57:26;;;;;;;4.03;2.75;;;21.20;95.80;;;;;;5021044;28;20227;-34
2023/06/13 06:59:52;;;;;;;4.20;2.95;;;21.10;94.00;;;;;;5005772;28;20190;-36
2023/06/13 07:02:18;;;;;;;3.45;2.80;;;21.30;94.80;;;;;;5015937;28;20213;-34
2023/06/13 07:04:45;;;;;;;4.60;3.28;;;21.50;94.60;;;;;;5027653;28;20270;-34
2023/06/13 07:07:11;;;;;;;4.72;3.05;;;21.60;94.40;;;;;;5032999;28;20210;-36
2023/06/13 07:09:37;;;;;;;4.18;2.50;;;21.70;92.90;;;;;;5033108;28;20206;-35
2023/06/13 07:12:03;;;;;;;4.13;3.10;;;21.60;92.60;;;;;;5024608;28;20197;-39
2023/06/13 07:14:29;;;;;;;5.93;2.88;;;21.70;92.60;;;;;;5020681;28;20182;-36
2023/06/13 07:16:55;;;;;;;3.30;3.00;;;21.70;92.10;;;;;;5026070;28;20207;-33
2023/06/13 07:19:23;;;;;;;3.50;2.60;;;21.80;92.70;;;;;;5029181;28;20276;-35
2023/06/13 07:21:49;;;;;;;3.60;2.78;;;21.90;92.10;;;;;;5027851;28;20206;-38
2023/06/13 07:24:15;;;;;;;4.90;2.80;;;22.00;92.00;;;;;;5029466;28;20197;-32
2023/06/13 07:26:40;;;;;;;5.22;3.15;;;22.20;92.10;;;;;;5013126;28;20211;-34
2023/06/13 07:29:06;;;;;;;4.10;2.90;;;22.30;92.00;;;;;;4996501;28;20210;-37
2023/06/13 07:31:32;;;;;;;3.88;2.80;;;22.30;91.40;;;;;;4996756;28;20179;-34
2023/06/13 07:33:58;;;;;;;5.47;3.50;;;22.30;91.80;;;;;;5021924;28;20174;-36
2023/06/13 07:36:24;;;;;;;3.47;2.60;;;22.30;91.50;;;;;;5028679;28;20195;-33
2023/06/13 07:38:51;;;;;;;3.72;2.80;;;22.30;91.60;;;;;;5011381;28;20357;-34
2023/06/13 07:41:17;;;;;;;4.47;3.30;;;22.40;92.00;;;;;;5023214;28;20218;-37
2023/06/13 07:43:43;;;;;;;5.53;2.90;;;22.50;91.40;;;;;;5029111;28;20214;-34
2023/06/13 07:46:09;;;;;;;4.22;2.90;;;22.60;91.00;;;;;;5032472;28;20198;-36
2023/06/13 07:48:34;;;;;;;3.88;2.78;;;22.70;90.80;;;;;;5028764;28;20214;-37
2023/06/13 07:51:00;;;;;;;3.85;2.80;;;22.80;89.30;;;;;;5015517;28;20186;-38
2023/06/13 07:53:26;;;;;;;3.40;3.10;;;22.90;90.00;;;;;;5033709;28;20183;-36
2023/06/13 07:55:54;;;;;;;3.40;2.88;;;23.00;88.90;;;;;;5031991;28;20202;-43
2023/06/13 07:58:20;;;;;;;5.13;3.30;;;23.00;89.80;;;;;;5015279;28;20215;-43
2023/06/13 08:00:46;;;;;;;4.68;2.90;;;23.10;89.40;;;;;;5000769;28;20241;-43
2023/06/13 08:03:12;;;;;;;4.45;2.97;;;23.20;89.40;;;;;;4995768;28;20191;-43
2023/06/13 08:05:38;;;;;;;5.35;3.10;;;23.40;90.10;;;;;;5002929;28;20191;-42
2023/06/13 08:08:04;;;;;;;4.28;2.50;;;23.30;87.20;;;;;;5011420;28;20285;-43
2023/06/13 08:10:30;;;;;;;6.93;2.95;;;23.40;86.40;;;;;;5016190;28;20210;-42
2023/06/13 08:12:56;;;;;;;4.55;3.10;;;23.60;88.60;;;;;;5015474;28;20202;-43
2023/06/13 08:15:21;;;;;;;4.40;3.15;;;23.70;86.90;;;;;;5014713;28;20171;-42
2023/06/13 08:17:47;;;;;;;2.90;2.50;;;23.80;85.40;;;;;;5011135;28;20269;-40
2023/06/13 08:20:13;;;;;;;4.68;2.95;;;23.70;85.70;;;;;;5013858;28;20282;-41
2023/06/13 08:22:40;;;;;;;4.70;3.03;;;23.90;85.50;;;;;;4999244;28;20283;-41
2023/06/13 08:25:08;;;;;;;4.40;2.83;;;23.90;85.10;;;;;;5004704;28;20197;-42
2023/06/13 08:27:36;;;;;;;3.67;2.83;;;23.90;85.00;;;;;;5014392;28;20202;-42
2023/06/13 08:30:06;;;;;;;3.00;2.70;;;24.10;84.00;;;;;;5021491;28;20631;-43
2023/06/13 08:32:32;;;;;;;5.43;3.10;;;23.90;81.80;;;;;;5016295;28;20175;-42
2023/06/13 08:34:59;;;;;;;4.13;3.10;;;24.00;82.00;;;;;;5023219;28;20182;-42
2023/06/13 08:37:26;;;;;;;4.00;3.13;;;24.00;81.80;;;;;;5001766;28;20211;-41
2023/06/13 08:39:52;;;;;;;3.50;3.15;;;24.30;83.40;;;;;;5002636;28;20186;-43
2023/06/13 08:42:19;;;;;;;3.13;2.80;;;24.50;82.00;;;;;;5031355;28;20719;-43
2023/06/13 08:44:47;;;;;;;7.57;3.00;;;24.60;81.50;;;;;;5005952;28;20170;-43
2023/06/13 08:47:13;;;;;;;3.38;2.75;;;24.60;81.00;;;;;;5011982;28;20198;-43
2023/06/13 08:49:39;;;;;;;3.20;2.90;;;24.50;81.40;;;;;;5008728;28;20214;-43
2023/06/13 08:52:11;;;;;;;3.55;3.13;;;24.80;82.10;;;;;;5004712;28;20228;-43
2023/06/13 08:54:38;;;;;;;3.55;2.80;;;24.90;80.60;;;;;;5017315;28;20209;-42
2023/06/13 08:57:09;;;;;;;4.72;2.70;;;24.90;80.90;;;;;;5002403;28;20203;-43
2023/06/13 08:59:37;;;;;;;4.80;2.83;;;24.90;80.90;;;;;;5003026;28;20182;-41
2023/06/13 09:02:04;;;;;;;3.33;3.03;;;25.20;81.50;;;;;;5020845;28;20214;-41
2023/06/13 09:04:35;;;;;;;3.55;2.95;;;25.30;79.90;;;;;;5018227;28;20671;-43
2023/06/13 09:07:02;;;;;;;3.33;3.03;;;25.40;78.70;;;;;;5001633;28;20234;-41
2023/06/13 09:09:30;;;;;;;4.47;2.80;;;25.40;78.90;;;;;;5006336;28;20206;-43
2023/06/13 09:11:57;;;;;;;5.22;2.85;;;25.30;80.00;;;;;;5030705;28;20175;-43
2023/06/13 09:14:23;;;;;;;7.22;3.30;;;25.40;78.50;;;;;;5010394;28;20273;-43
2023/06/13 09:16:54;;;;;;;3.20;2.90;;;25.60;80.00;;;;;;5009237;28;20226;-43
2023/06/13 09:19:20;;;;;;;5.63;2.85;;;25.70;80.60;;;;;;5010792;28;20246;-43
2023/06/13 09:21:46;;;;;;;3.38;2.67;;;25.60;79.00;;;;;;4998592;28;20194;-42
2023/06/13 09:24:12;;;;;;;3.50;3.20;;;25.90;78.00;;;;;;5026281;28;20273;-43
2023/06/13 09:26:42;;;;;;;5.30;3.72;;;25.70;79.50;;;;;;5029924;28;20217;-41
2023/06/13 09:29:08;;;;;;;3.53;2.95;;;25.30;78.20;;;;;;5027532;28;20218;-43
2023/06/13 09:31:38;;;;;;;5.13;3.00;;;25.40;79.00;;;;;;5027072;28;20180;-43
2023/06/13 09:34:07;;;;;;;8.00;2.90;;;25.60;78.00;;;;;;5021323;28;20179;-41
2023/06/13 09:36:37;;;;;;;5.40;2.95;;;25.80;77.80;;;;;;4997191;28;20210;-42
2023/06/13 09:39:06;;;;;;;4.32;3.20;;;25.90;77.70;;;;;;5002122;28;20187;-43
2023/06/13 09:41:33;;;;;;;3.30;2.95;;;26.00;77.00;;;;;;5006755;28;20269;-43
2023/06/13 09:44:05;;;;;;;8.30;3.05;;;26.10;78.20;;;;;;5013600;28;20232;-42
2023/06/13 09:46:36;;;;;;;3.90;3.15;;;26.20;78.50;;;;;;5004548;28;20321;-44
2023/06/13 09:49:02;;;;;;;7.22;3.42;;;26.40;78.50;;;;;;5004693;28;20233;-43
2023/06/13 09:51:32;;;;;;;6.32;3.10;;;26.20;78.10;;;;;;5001239;28;20227;-41
2023/06/13 09:54:00;;;;;;;6.60;3.13;;;26.30;77.30;;;;;;5002220;28;20183;-44
2023/06/13 09:56:26;;;;;;;4.80;3.35;;;26.50;78.10;;;;;;4997455;28;20199;-43
2023/06/13 09:58:52;;;;;;;4.45;3.40;;;26.60;76.20;;;;;;5029069;28;20202;-43
2023/06/13 10:01:19;;;;;;;7.40;3.22;;;26.70;76.40;;;;;;5024455;28;20190;-41
2023/06/13 10:03:46;;;;;;;5.88;3.42;;;26.80;75.50;;;;;;5024809;28;20185;-42
2023/06/13 10:06:13;;;;;;;5.72;3.67;;;26.80;74.50;;;;;;5018117;28;20291;-43
2023/06/13 10:08:40;;;;;;;4.28;3.00;;;27.00;75.60;;;;;;5002262;28;20207;-42
2023/06/13 10:11:16;;;;;;;3.58;3.17;;;27.00;76.20;;;;;;5020731;28;20197;-39
2023/06/13 10:13:52;;;;;;;3.70;2.97;;;27.00;73.20;;;;;;5007830;28;20182;-39
2023/06/13 10:16:21;;;;;;;4.78;3.15;;;27.10;74.30;;;;;;5010410;28;20208;-40
2023/06/13 10:18:48;;;;;;;5.95;3.22;;;27.20;73.30;;;;;;5028516;28;20183;-41
2023/06/13 10:21:16;;;;;;;5.85;3.30;;;27.20;72.30;;;;;;5016605;28;20191;-41
2023/06/13 10:23:49;;;;;;;5.28;2.75;;;27.20;72.90;;;;;;5023613;28;20264;-39
2023/06/13 10:26:44;;;;;;;3.67;3.08;;;27.30;72.50;;;;;;5011748;28;20214;-37
2023/06/13 10:29:39;;;;;;;3.53;3.22;;;27.40;72.00;;;;;;5033373;28;20227;-40
2023/06/13 10:32:31;;;;;;;4.47;2.92;;;27.30;70.40;;;;;;5010418;28;20178;-39
2023/06/13 10:35:12;;;;;;;6.55;3.20;;;27.50;70.90;;;;;;5021118;28;20183;-41
2023/06/13 10:38:05;;;;;;;6.68;3.63;;;27.70;70.20;;;;;;5003453;28;20198;-39
2023/06/13 10:41:05;;;;;;;4.00;3.15;;;27.80;69.50;;;;;;5013666;28;20222;-41
2023/06/13 10:43:37;;;;;;;3.75;3.20;;;27.80;70.00;;;;;;5005905;28;20183;-41
2023/06/13 10:46:06;;;;;;;4.50;3.20;;;27.80;72.00;;;;;;5020687;28;20217;-40
2023/06/13 10:48:52;;;;;;;5.60;3.10;;;28.00;70.50;;;;;;5007709;28;20202;-38
2023/06/13 10:51:23;;;;;;;3.50;3.20;;;28.20;66.80;;;;;;5008546;28;20186;-40
2023/06/13 10:54:09;;;;;;;3.13;2.83;;;28.20;65.40;;;;;;5000087;28;20175;-38
2023/06/13 10:56:42;;;;;;;4.25;2.83;;;28.30;65.10;;;;;;5032240;28;20746;-41
2023/06/13 10:59:15;;;;;;;4.35;3.20;;;28.20;68.10;;;;;;5010388;28;20182;-40
2023/06/13 11:01:44;;;;;;;4.13;3.25;;;28.10;68.20;;;;;;5028768;28;20189;-40
2023/06/13 11:04:13;;;;;;;4.00;3.13;;;28.30;66.50;;;;;;5028030;28;20183;-41
2023/06/13 11:06:42;;;;;;;3.90;3.47;;;28.40;65.80;;;;;;5005764;28;20302;-39
2023/06/13 11:09:14;;;;;;;5.50;3.65;;;28.50;66.60;;;;;;5023095;28;20202;-39
2023/06/13 11:12:00;;;;;;;4.05;3.15;;;28.40;65.20;;;;;;5009631;28;20270;-41
2023/06/13 11:14:47;;;;;;;3.70;3.30;;;28.50;66.70;;;;;;5020912;28;20183;-40
2023/06/13 11:17:13;;;;;;;4.40;2.90;;;28.50;65.00;;;;;;5028278;28;20214;-41
2023/06/13 11:19:39;;;;;;;4.95;3.00;;;28.70;65.80;;;;;;5004174;28;20183;-38
2023/06/13 11:22:05;;;;;;;6.88;3.50;;;28.70;64.50;;;;;;5010439;28;20282;-40
2023/06/13 11:24:35;;;;;;;5.75;3.08;;;28.70;61.90;;;;;;5024520;28;20291;-40
2023/06/13 11:27:06;;;;;;;6.20;3.45;;;28.80;65.00;;;;;;5002430;28;20203;-42
2023/06/13 11:29:33;;;;;;;3.88;3.25;;;28.70;65.20;;;;;;5000714;28;20206;-39
2023/06/13 11:32:00;;;;;;;3.88;3.33;;;28.60;65.70;;;;;;5003762;28;20246;-39
2023/06/13 11:34:31;;;;;;;6.90;3.40;;;28.60;68.20;;;;;;5020144;28;20183;-38
2023/06/13 11:37:25;;;;;;;5.38;3.50;;;28.50;64.60;;;;;;5024673;28;20190;-40
2023/06/13 11:39:56;;;;;;;3.55;3.10;;;28.40;64.60;;;;;;5014333;28;20190;-38
2023/06/13 11:42:24;;;;;;;4.28;3.38;;;28.60;64.40;;;;;;5029456;28;20241;-38
2023/06/13 11:44:56;;;;;;;3.95;3.40;;;28.80;64.80;;;;;;5023235;28;20201;-41
2023/06/13 11:47:28;;;;;;;3.90;3.20;;;29.00;63.70;;;;;;5010463;28;20238;-41
2023/06/13 11:49:59;;;;;;;5.03;3.15;;;29.00;62.50;;;;;;5015304;28;20222;-37
2023/06/13 11:52:25;;;;;;;4.22;3.30;;;29.20;64.30;;;;;;5009197;28;20195;-41
2023/06/13 11:54:54;;;;;;;7.13;3.97;;;29.10;62.80;;;;;;5026789;28;20273;-41
2023/06/13 11:57:23;;;;;;;3.95;3.55;;;29.30;61.90;;;;;;5021383;28;20198;-42
2023/06/13 11:59:58;;;;;;;6.53;3.45;;;29.20;64.90;;;;;;5037203;28;20225;-41
2023/06/13 12:02:25;;;;;;;5.07;3.42;;;29.30;65.20;;;;;;5024561;28;20176;-40
2023/06/13 12:04:52;;;;;;;4.28;3.22;;;29.20;64.90;;;;;;5010994;28;20186;-39
2023/06/13 12:07:18;;;;;;;6.70;2.72;;;29.50;64.70;;;;;;5017196;28;20219;-39
2023/06/13 12:09:45;;;;;;;7.28;3.22;;;29.90;64.50;;;;;;5015743;28;20198;-39
2023/06/13 12:12:11;;;;;;;4.85;3.22;;;29.90;63.90;;;;;;5025715;28;20278;-39
2023/06/13 12:14:38;;;;;;;4.88;3.55;;;29.80;64.10;;;;;;5023276;28;20274;-37
2023/06/13 12:17:09;;;;;;;3.92;3.28;;;29.50;62.00;;;;;;5020182;28;20202;-42
2023/06/13 12:19:37;;;;;;;4.43;3.30;;;29.50;62.00;;;;;;5034315;28;20186;-39
2023/06/13 12:22:05;;;;;;;6.07;3.60;;;29.70;61.90;;;;;;5009629;28;20222;-40
2023/06/13 12:24:34;;;;;;;9.00;3.70;;;29.90;62.40;;;;;;5034514;28;20195;-38
2023/06/13 12:27:02;;;;;;;4.55;3.30;;;29.90;62.00;;;;;;5008453;28;20206;-39
2023/06/13 12:29:33;;;;;;;4.57;3.90;;;29.80;62.10;;;;;;5001708;28;20203;-36
2023/06/13 12:32:05;;;;;;;6.13;3.20;;;29.80;63.50;;;;;;4999994;28;20187;-38
2023/06/13 12:34:35;;;;;;;3.65;3.30;;;29.90;63.70;;;;;;5018410;28;20215;-39
2023/06/13 12:37:04;;;;;;;8.82;3.83;;;29.70;61.90;;;;;;5021929;28;20195;-41
2023/06/13 12:39:31;;;;;;;6.15;3.60;;;29.80;60.40;;;;;;5000762;28;20183;-39
2023/06/13 12:42:07;;;;;;;4.03;3.60;;;29.90;61.70;;;;;;5017043;28;20187;-40
2023/06/13 12:44:35;;;;;;;4.65;3.70;;;30.10;60.70;;;;;;5013725;28;20178;-40
2023/06/13 12:47:03;;;;;;;5.68;3.58;;;30.30;60.40;;;;;;4998786;28;20207;-38
2023/06/13 12:49:39;;;;;;;4.05;3.65;;;30.40;62.10;;;;;;5016600;28;20207;-37
2023/06/13 12:52:07;;;;;;;5.72;3.50;;;30.50;59.50;;;;;;5024606;28;20187;-38
2023/06/13 12:54:35;;;;;;;6.53;3.70;;;30.30;61.20;;;;;;5012714;28;20183;-38
2023/06/13 12:57:06;;;;;;;6.57;4.00;;;30.40;59.60;;;;;;5013246;28;20207;-38